Jacobus — OR3790 — position and weather

sailwx.info

Track history (hours):
 
Tides and Currents Weather Stations Pressure Air Temp Water Temp Dewpoint Dewpoint Depression Visibility Wind Speed Wind Dir Waves Ship Positions

Jacobus

Last reported at 2016-Sep-11 14:33 UTC. Time now 2016-Sep-26 07:05 UTC.
Position N 39°30' E 002°45'.
Warning: this ship's position is 14 days out of date.

Length 17 m.

Type: Pleasure craft. MMSI: 205379010.

Date/timePositionNaut miles runAvg speedWind from/ knotsBaromVisibWave heightAir tempDewpointWater temp
2016-Sep-11 14:33N 39°30' E 002°45'3 2.6
2016-Sep-11 13:33N 39°32' E 002°43'0 0.0
2016-Sep-11 12:31N 39°32' E 002°43'0 0.0
2016-Sep-11 11:28N 39°32' E 002°43'6 1.9
2016-Sep-11 08:33N 39°32' E 002°35'0 0.0
2016-Sep-11 07:33N 39°32' E 002°35'0 0.0
2016-Sep-11 03:33N 39°32' E 002°35'0 0.0
2016-Sep-11 02:32N 39°32' E 002°35'0 0.0
2016-Sep-11 01:33N 39°32' E 002°35'0 0.0
2016-Sep-11 00:33N 39°32' E 002°35'0 0.0
2016-Sep-10 23:33N 39°32' E 002°35'0 0.0
2016-Sep-10 22:32N 39°32' E 002°35'0 0.0
2016-Sep-10 21:32N 39°32' E 002°35'0 0.0
2016-Sep-10 20:33N 39°32' E 002°35'1 0.5
2016-Sep-10 19:33N 39°32' E 002°35'0 0.0
2016-Sep-10 18:33N 39°32' E 002°35'0 0.0
2016-Sep-10 17:33N 39°32' E 002°35'0 0.0
2016-Sep-10 16:33N 39°32' E 002°35'0 0.0
2016-Sep-10 15:33N 39°32' E 002°35'0 0.0
2016-Sep-10 14:34N 39°32' E 002°35'2 2.2
2016-Sep-10 13:33N 39°31' E 002°37'2 1.8
2016-Sep-10 12:33N 39°32' E 002°35'0 0.0
2016-Sep-10 11:32N 39°32' E 002°35'0 0.0
2016-Sep-10 10:32N 39°32' E 002°35'3 2.9
2016-Sep-10 09:33N 39°33' E 002°38'1 0.7
2016-Sep-10 08:32N 39°34' E 002°39'0 0.0
2016-Sep-10 07:32N 39°34' E 002°39'0 0.0
2016-Sep-10 06:32N 39°34' E 002°39'0 0.0
2016-Sep-10 05:32N 39°34' E 002°39'0 0.0
2016-Sep-10 04:32N 39°34' E 002°39'0 0.0
2016-Sep-10 03:32N 39°34' E 002°39'0 0.0
2016-Sep-10 02:32N 39°34' E 002°39'0 0.0
2016-Sep-10 01:32N 39°34' E 002°39'0 0.0
2016-Sep-10 00:32N 39°34' E 002°39'0 0.0
2016-Sep-09 23:32N 39°34' E 002°39'0 0.0
2016-Sep-09 22:32N 39°34' E 002°39'0 0.0
2016-Sep-09 21:32N 39°34' E 002°39'0 0.0
2016-Sep-09 20:32N 39°34' E 002°39'0 0.0
2016-Sep-09 19:32N 39°34' E 002°39'0 0.0
2016-Sep-09 18:32N 39°34' E 002°39'0 0.0
2016-Sep-09 17:32N 39°34' E 002°39'0 0.0
2016-Sep-09 16:32N 39°34' E 002°39'0 0.0
2016-Sep-09 15:32N 39°34' E 002°39'0 0.0
2016-Sep-09 14:32N 39°34' E 002°39'0 0.0
2016-Sep-09 13:26N 39°34' E 002°39'0 0.0
2016-Sep-09 12:32N 39°34' E 002°39'0 0.0
2016-Sep-09 11:32N 39°34' E 002°39'0 0.1
2016-Sep-09 10:32N 39°34' E 002°39'0 0.0
2016-Sep-09 09:32N 39°34' E 002°39'0 0.0
2016-Sep-09 08:32N 39°34' E 002°39'0 0.0
2016-Sep-09 07:32N 39°34' E 002°39'0 0.0
2016-Sep-09 06:29N 39°34' E 002°39'0 0.0
2016-Sep-09 05:32N 39°34' E 002°39'0 0.0
2016-Sep-09 04:32N 39°34' E 002°39'0 0.0
2016-Sep-09 03:32N 39°34' E 002°39'0 0.0
2016-Sep-09 02:29N 39°34' E 002°39'0 0.0
2016-Sep-09 01:32N 39°34' E 002°39'0 0.0
2016-Sep-09 00:32N 39°34' E 002°39'0 0.0
2016-Sep-08 23:32N 39°34' E 002°39'0 0.0
2016-Sep-08 22:32N 39°34' E 002°39'0 0.0
2016-Sep-08 21:32N 39°34' E 002°39'0 0.0
2016-Sep-08 20:32N 39°34' E 002°39'0 0.0
2016-Sep-08 19:32N 39°34' E 002°39'0 0.0
2016-Sep-08 18:32N 39°34' E 002°39'0 0.0
2016-Sep-08 17:32N 39°34' E 002°39'5 4.8
2016-Sep-08 16:33N 39°30' E 002°41'7 6.6
2016-Sep-08 15:33N 39°24' E 002°45'7 6.3
2016-Sep-08 14:31N 39°21' E 002°52'5 5.6
2016-Sep-08 13:33N 39°20' E 002°59'0 0.0
2016-Sep-08 12:33N 39°20' E 002°59'0 0.0
2016-Sep-08 11:32N 39°20' E 002°59'0 0.0
2016-Sep-08 10:33N 39°20' E 002°59'5 4.8
2016-Sep-08 09:30N 39°16' E 003°03'22 1.1
2016-Sep-07 14:07N 39°30' E 003°24'36 1.0
2016-Sep-06 01:33N 40°01' E 003°47'209 4.5
2016-Sep-04 03:04N 43°00' E 006°12'0 0.0
2016-Sep-04 00:19N 43°00' E 006°12'0 0.0
2016-Sep-03 23:28N 43°00' E 006°12'10 0.6
2016-Sep-03 06:32N 43°03' E 006°25'8 7.2
2016-Sep-03 05:29N 43°06' E 006°34'7 7.2
2016-Sep-03 04:29N 43°11' E 006°41'7 7.1
2016-Sep-03 03:34N 43°16' E 006°47'15 6.9
2016-Sep-03 01:27N 43°26' E 007°01'6 6.9
2016-Sep-03 00:33N 43°31' E 007°07'7 7.1
2016-Sep-02 23:33N 43°37' E 007°13'6 4.4
2016-Sep-02 22:11N 43°42' E 007°17'0 0.0
2016-Sep-02 21:29N 43°42' E 007°17'0 0.0
2016-Sep-02 20:29N 43°42' E 007°17'0 0.0
2016-Sep-02 19:23N 43°42' E 007°17'0 0.0
2016-Sep-02 17:17N 43°42' E 007°17'0 0.0
2016-Sep-02 16:23N 43°42' E 007°17'  
Track history (hours):
 
Tides and Currents Weather Stations Pressure Air Temp Water Temp Dewpoint Dewpoint Depression Visibility Wind Speed Wind Dir Waves Ship Positions

Jacobus

Last reported at 2016-Sep-11 14:33 UTC. Time now 2016-Sep-26 07:05 UTC.
Position N 39°30' E 002°45'.
Warning: this ship's position is 14 days out of date.

Length 17 m.

Type: Pleasure craft. MMSI: 205379010.

Date/timePositionNaut miles runAvg speedWind from/ knotsBaromVisibWave heightAir tempDewpointWater temp
2016-Sep-11 14:33N 39°30' E 002°45'3 2.6
2016-Sep-11 13:33N 39°32' E 002°43'0 0.0
2016-Sep-11 12:31N 39°32' E 002°43'0 0.0
2016-Sep-11 11:28N 39°32' E 002°43'6 1.9
2016-Sep-11 08:33N 39°32' E 002°35'0 0.0
2016-Sep-11 07:33N 39°32' E 002°35'0 0.0
2016-Sep-11 03:33N 39°32' E 002°35'0 0.0
2016-Sep-11 02:32N 39°32' E 002°35'0 0.0
2016-Sep-11 01:33N 39°32' E 002°35'0 0.0
2016-Sep-11 00:33N 39°32' E 002°35'0 0.0
2016-Sep-10 23:33N 39°32' E 002°35'0 0.0
2016-Sep-10 22:32N 39°32' E 002°35'0 0.0
2016-Sep-10 21:32N 39°32' E 002°35'0 0.0
2016-Sep-10 20:33N 39°32' E 002°35'1 0.5
2016-Sep-10 19:33N 39°32' E 002°35'0 0.0
2016-Sep-10 18:33N 39°32' E 002°35'0 0.0
2016-Sep-10 17:33N 39°32' E 002°35'0 0.0
2016-Sep-10 16:33N 39°32' E 002°35'0 0.0
2016-Sep-10 15:33N 39°32' E 002°35'0 0.0
2016-Sep-10 14:34N 39°32' E 002°35'2 2.2
2016-Sep-10 13:33N 39°31' E 002°37'2 1.8
2016-Sep-10 12:33N 39°32' E 002°35'0 0.0
2016-Sep-10 11:32N 39°32' E 002°35'0 0.0
2016-Sep-10 10:32N 39°32' E 002°35'3 2.9
2016-Sep-10 09:33N 39°33' E 002°38'1 0.7
2016-Sep-10 08:32N 39°34' E 002°39'0 0.0
2016-Sep-10 07:32N 39°34' E 002°39'0 0.0
2016-Sep-10 06:32N 39°34' E 002°39'0 0.0
2016-Sep-10 05:32N 39°34' E 002°39'0 0.0
2016-Sep-10 04:32N 39°34' E 002°39'0 0.0
2016-Sep-10 03:32N 39°34' E 002°39'0 0.0
2016-Sep-10 02:32N 39°34' E 002°39'0 0.0
2016-Sep-10 01:32N 39°34' E 002°39'0 0.0
2016-Sep-10 00:32N 39°34' E 002°39'0 0.0
2016-Sep-09 23:32N 39°34' E 002°39'0 0.0
2016-Sep-09 22:32N 39°34' E 002°39'0 0.0
2016-Sep-09 21:32N 39°34' E 002°39'0 0.0
2016-Sep-09 20:32N 39°34' E 002°39'0 0.0
2016-Sep-09 19:32N 39°34' E 002°39'0 0.0
2016-Sep-09 18:32N 39°34' E 002°39'0 0.0
2016-Sep-09 17:32N 39°34' E 002°39'0 0.0
2016-Sep-09 16:32N 39°34' E 002°39'0 0.0
2016-Sep-09 15:32N 39°34' E 002°39'0 0.0
2016-Sep-09 14:32N 39°34' E 002°39'0 0.0
2016-Sep-09 13:26N 39°34' E 002°39'0 0.0
2016-Sep-09 12:32N 39°34' E 002°39'0 0.0
2016-Sep-09 11:32N 39°34' E 002°39'0 0.1
2016-Sep-09 10:32N 39°34' E 002°39'0 0.0
2016-Sep-09 09:32N 39°34' E 002°39'0 0.0
2016-Sep-09 08:32N 39°34' E 002°39'0 0.0
2016-Sep-09 07:32N 39°34' E 002°39'0 0.0
2016-Sep-09 06:29N 39°34' E 002°39'0 0.0
2016-Sep-09 05:32N 39°34' E 002°39'0 0.0
2016-Sep-09 04:32N 39°34' E 002°39'0 0.0
2016-Sep-09 03:32N 39°34' E 002°39'0 0.0
2016-Sep-09 02:29N 39°34' E 002°39'0 0.0
2016-Sep-09 01:32N 39°34' E 002°39'0 0.0
2016-Sep-09 00:32N 39°34' E 002°39'0 0.0
2016-Sep-08 23:32N 39°34' E 002°39'0 0.0
2016-Sep-08 22:32N 39°34' E 002°39'0 0.0
2016-Sep-08 21:32N 39°34' E 002°39'0 0.0
2016-Sep-08 20:32N 39°34' E 002°39'0 0.0
2016-Sep-08 19:32N 39°34' E 002°39'0 0.0
2016-Sep-08 18:32N 39°34' E 002°39'0 0.0
2016-Sep-08 17:32N 39°34' E 002°39'5 4.8
2016-Sep-08 16:33N 39°30' E 002°41'7 6.6
2016-Sep-08 15:33N 39°24' E 002°45'7 6.3
2016-Sep-08 14:31N 39°21' E 002°52'5 5.6
2016-Sep-08 13:33N 39°20' E 002°59'0 0.0
2016-Sep-08 12:33N 39°20' E 002°59'0 0.0
2016-Sep-08 11:32N 39°20' E 002°59'0 0.0
2016-Sep-08 10:33N 39°20' E 002°59'5 4.8
2016-Sep-08 09:30N 39°16' E 003°03'22 1.1
2016-Sep-07 14:07N 39°30' E 003°24'36 1.0
2016-Sep-06 01:33N 40°01' E 003°47'209 4.5
2016-Sep-04 03:04N 43°00' E 006°12'0 0.0
2016-Sep-04 00:19N 43°00' E 006°12'0 0.0
2016-Sep-03 23:28N 43°00' E 006°12'10 0.6
2016-Sep-03 06:32N 43°03' E 006°25'8 7.2
2016-Sep-03 05:29N 43°06' E 006°34'7 7.2
2016-Sep-03 04:29N 43°11' E 006°41'7 7.1
2016-Sep-03 03:34N 43°16' E 006°47'15 6.9
2016-Sep-03 01:27N 43°26' E 007°01'6 6.9
2016-Sep-03 00:33N 43°31' E 007°07'7 7.1
2016-Sep-02 23:33N 43°37' E 007°13'6 4.4
2016-Sep-02 22:11N 43°42' E 007°17'0 0.0
2016-Sep-02 21:29N 43°42' E 007°17'0 0.0
2016-Sep-02 20:29N 43°42' E 007°17'0 0.0
2016-Sep-02 19:23N 43°42' E 007°17'0 0.0
2016-Sep-02 17:17N 43°42' E 007°17'0 0.0
2016-Sep-02 16:23N 43°42' E 007°17'  

Dump ship's entire track history